sensor_id;sensor_type;location;lat;lon;timestamp;temperature;humidity
65989;HTU21D;53592;51.402;6.054;2023-02-13T00:02:14;8.55;80.49
65989;HTU21D;53592;51.402;6.054;2023-02-13T00:04:40;8.51;80.69
65989;HTU21D;53592;51.402;6.054;2023-02-13T00:07:08;8.47;80.79
65989;HTU21D;53592;51.402;6.054;2023-02-13T00:09:36;8.43;80.85
65989;HTU21D;53592;51.402;6.054;2023-02-13T00:12:02;8.43;80.95
65989;HTU21D;53592;51.402;6.054;2023-02-13T00:14:28;8.42;81.08
65989;HTU21D;53592;51.402;6.054;2023-02-13T00:16:53;8.41;81.23
65989;HTU21D;53592;51.402;6.054;2023-02-13T00:19:19;8.41;81.23
65989;HTU21D;53592;51.402;6.054;2023-02-13T00:21:44;8.38;81.29
65989;HTU21D;53592;51.402;6.054;2023-02-13T00:24:10;8.39;81.26
65989;HTU21D;53592;51.402;6.054;2023-02-13T00:26:35;8.37;81.31
65989;HTU21D;53592;51.402;6.054;2023-02-13T00:29:01;8.37;81.38
65989;HTU21D;53592;51.402;6.054;2023-02-13T00:31:26;8.34;81.43
65989;HTU21D;53592;51.402;6.054;2023-02-13T00:33:52;8.32;81.40
65989;HTU21D;53592;51.402;6.054;2023-02-13T00:36:20;8.30;81.47
65989;HTU21D;53592;51.402;6.054;2023-02-13T00:38:47;8.24;81.51
65989;HTU21D;53592;51.402;6.054;2023-02-13T00:41:13;8.20;81.55
65989;HTU21D;53592;51.402;6.054;2023-02-13T00:43:40;8.16;81.55
65989;HTU21D;53592;51.402;6.054;2023-02-13T00:46:06;8.13;81.70
65989;HTU21D;53592;51.402;6.054;2023-02-13T00:48:33;8.06;81.74
65989;HTU21D;53592;51.402;6.054;2023-02-13T00:50:59;8.03;81.69
65989;HTU21D;53592;51.402;6.054;2023-02-13T00:53:26;7.97;81.84
65989;HTU21D;53592;51.402;6.054;2023-02-13T00:55:52;7.96;81.81
65989;HTU21D;53592;51.402;6.054;2023-02-13T00:58:19;7.93;81.76
65989;HTU21D;53592;51.402;6.054;2023-02-13T01:00:45;7.91;81.73
65989;HTU21D;53592;51.402;6.054;2023-02-13T01:03:15;7.87;81.68
65989;HTU21D;53592;51.402;6.054;2023-02-13T01:05:42;7.84;81.59
65989;HTU21D;53592;51.402;6.054;2023-02-13T01:08:08;7.83;81.49
65989;HTU21D;53592;51.402;6.054;2023-02-13T01:10:36;7.79;81.23
65989;HTU21D;53592;51.402;6.054;2023-02-13T01:13:02;7.75;81.22
65989;HTU21D;53592;51.402;6.054;2023-02-13T01:15:27;7.70;81.34
65989;HTU21D;53592;51.402;6.054;2023-02-13T01:17:54;7.65;81.37
65989;HTU21D;53592;51.402;6.054;2023-02-13T01:20:22;7.61;81.36
65989;HTU21D;53592;51.402;6.054;2023-02-13T01:22:48;7.57;81.35
65989;HTU21D;53592;51.402;6.054;2023-02-13T01:25:14;7.53;81.23
65989;HTU21D;53592;51.402;6.054;2023-02-13T01:27:39;7.48;81.20
65989;HTU21D;53592;51.402;6.054;2023-02-13T01:30:06;7.44;81.10
65989;HTU21D;53592;51.402;6.054;2023-02-13T01:32:39;7.39;81.10
65989;HTU21D;53592;51.402;6.054;2023-02-13T01:35:05;7.32;81.29
65989;HTU21D;53592;51.402;6.054;2023-02-13T01:37:31;7.28;81.43
65989;HTU21D;53592;51.402;6.054;2023-02-13T01:39:57;7.25;81.57
65989;HTU21D;53592;51.402;6.054;2023-02-13T01:42:32;7.19;81.65
65989;HTU21D;53592;51.402;6.054;2023-02-13T01:45:22;7.14;81.76
65989;HTU21D;53592;51.402;6.054;2023-02-13T01:47:53;7.13;81.78
65989;HTU21D;53592;51.402;6.054;2023-02-13T01:50:24;7.09;81.83
65989;HTU21D;53592;51.402;6.054;2023-02-13T01:55:37;7.05;81.65
65989;HTU21D;53592;51.402;6.054;2023-02-13T01:58:09;6.99;81.78
65989;HTU21D;53592;51.402;6.054;2023-02-13T02:00:37;6.97;81.73
65989;HTU21D;53592;51.402;6.054;2023-02-13T02:03:10;6.95;81.69
65989;HTU21D;53592;51.402;6.054;2023-02-13T02:05:38;6.93;81.62
65989;HTU21D;53592;51.402;6.054;2023-02-13T02:08:08;6.88;81.53
65989;HTU21D;53592;51.402;6.054;2023-02-13T02:10:36;6.83;81.51
65989;HTU21D;53592;51.402;6.054;2023-02-13T02:13:13;6.80;81.48
65989;HTU21D;53592;51.402;6.054;2023-02-13T02:15:41;6.72;81.49
65989;HTU21D;53592;51.402;6.054;2023-02-13T02:18:19;6.69;81.54
65989;HTU21D;53592;51.402;6.054;2023-02-13T02:21:57;6.64;81.64
65989;HTU21D;53592;51.402;6.054;2023-02-13T02:24:25;6.61;81.63
65989;HTU21D;53592;51.402;6.054;2023-02-13T02:29:36;6.54;82.00
65989;HTU21D;53592;51.402;6.054;2023-02-13T02:40:59;6.40;82.90
65989;HTU21D;53592;51.402;6.054;2023-02-13T02:43:39;6.39;82.93
65989;HTU21D;53592;51.402;6.054;2023-02-13T02:46:30;6.36;83.16
65989;HTU21D;53592;51.402;6.054;2023-02-13T02:49:05;6.31;83.38
65989;HTU21D;53592;51.402;6.054;2023-02-13T02:52:07;6.29;83.50
65989;HTU21D;53592;51.402;6.054;2023-02-13T02:55:45;6.27;83.48
65989;HTU21D;53592;51.402;6.054;2023-02-13T02:57:59;6.26;83.61
65989;HTU21D;53592;51.402;6.054;2023-02-13T03:01:00;6.24;83.73
65989;HTU21D;53592;51.402;6.054;2023-02-13T03:03:46;6.24;83.67
65989;HTU21D;53592;51.402;6.054;2023-02-13T03:06:43;6.22;83.64
65989;HTU21D;53592;51.402;6.054;2023-02-13T03:09:15;6.21;83.56
65989;HTU21D;53592;51.402;6.054;2023-02-13T03:12:02;6.21;83.46
65989;HTU21D;53592;51.402;6.054;2023-02-13T03:14:46;6.20;83.33
65989;HTU21D;53592;51.402;6.054;2023-02-13T03:17:15;6.19;83.25
65989;HTU21D;53592;51.402;6.054;2023-02-13T03:23:08;6.15;83.30
65989;HTU21D;53592;51.402;6.054;2023-02-13T03:26:01;6.11;83.69
65989;HTU21D;53592;51.402;6.054;2023-02-13T03:34:20;6.01;83.87
65989;HTU21D;53592;51.402;6.054;2023-02-13T03:37:07;6.01;83.74
65989;HTU21D;53592;51.402;6.054;2023-02-13T03:40:06;6.01;83.54
65989;HTU21D;53592;51.402;6.054;2023-02-13T03:42:44;5.99;83.49
65989;HTU21D;53592;51.402;6.054;2023-02-13T03:45:38;5.98;83.39
65989;HTU21D;53592;51.402;6.054;2023-02-13T03:51:15;5.96;82.87
65989;HTU21D;53592;51.402;6.054;2023-02-13T03:53:45;5.96;82.65
65989;HTU21D;53592;51.402;6.054;2023-02-13T03:56:14;5.93;82.09
65989;HTU21D;53592;51.402;6.054;2023-02-13T03:59:02;5.86;82.08
65989;HTU21D;53592;51.402;6.054;2023-02-13T04:01:47;5.87;82.06
65989;HTU21D;53592;51.402;6.054;2023-02-13T04:04:21;5.83;81.84
65989;HTU21D;53592;51.402;6.054;2023-02-13T04:09:14;5.77;81.91
65989;HTU21D;53592;51.402;6.054;2023-02-13T04:15:05;5.69;82.26
65989;HTU21D;53592;51.402;6.054;2023-02-13T04:17:44;5.69;82.16
65989;HTU21D;53592;51.402;6.054;2023-02-13T04:20:10;5.68;82.14
65989;HTU21D;53592;51.402;6.054;2023-02-13T04:22:46;5.66;82.21
65989;HTU21D;53592;51.402;6.054;2023-02-13T04:25:15;5.64;82.22
65989;HTU21D;53592;51.402;6.054;2023-02-13T04:27:41;5.62;82.16
65989;HTU21D;53592;51.402;6.054;2023-02-13T04:30:07;5.60;82.06
65989;HTU21D;53592;51.402;6.054;2023-02-13T04:32:33;5.56;82.12
65989;HTU21D;53592;51.402;6.054;2023-02-13T04:34:59;5.55;82.10
65989;HTU21D;53592;51.402;6.054;2023-02-13T04:37:24;5.54;81.99
65989;HTU21D;53592;51.402;6.054;2023-02-13T04:39:50;5.53;81.97
65989;HTU21D;53592;51.402;6.054;2023-02-13T04:42:15;5.51;81.97
65989;HTU21D;53592;51.402;6.054;2023-02-13T04:44:41;5.48;81.90
65989;HTU21D;53592;51.402;6.054;2023-02-13T04:47:06;5.49;81.78
65989;HTU21D;53592;51.402;6.054;2023-02-13T04:49:32;5.48;81.57
65989;HTU21D;53592;51.402;6.054;2023-02-13T04:51:57;5.47;81.38
65989;HTU21D;53592;51.402;6.054;2023-02-13T04:54:23;5.43;81.36
65989;HTU21D;53592;51.402;6.054;2023-02-13T04:56:48;5.41;81.23
65989;HTU21D;53592;51.402;6.054;2023-02-13T04:59:14;5.37;81.39
65989;HTU21D;53592;51.402;6.054;2023-02-13T05:01:39;5.34;81.58
65989;HTU21D;53592;51.402;6.054;2023-02-13T05:04:05;5.33;81.52
65989;HTU21D;53592;51.402;6.054;2023-02-13T05:06:30;5.31;81.42
65989;HTU21D;53592;51.402;6.054;2023-02-13T05:08:56;5.30;81.34
65989;HTU21D;53592;51.402;6.054;2023-02-13T05:11:21;5.24;81.11
65989;HTU21D;53592;51.402;6.054;2023-02-13T05:13:47;5.21;81.04
65989;HTU21D;53592;51.402;6.054;2023-02-13T05:16:12;5.21;81.09
65989;HTU21D;53592;51.402;6.054;2023-02-13T05:18:38;5.20;81.04
65989;HTU21D;53592;51.402;6.054;2023-02-13T05:21:04;5.18;81.04
65989;HTU21D;53592;51.402;6.054;2023-02-13T05:23:48;5.19;80.86
65989;HTU21D;53592;51.402;6.054;2023-02-13T05:26:13;5.19;80.70
65989;HTU21D;53592;51.402;6.054;2023-02-13T05:28:38;5.17;80.55
65989;HTU21D;53592;51.402;6.054;2023-02-13T05:31:23;5.12;80.31
65989;HTU21D;53592;51.402;6.054;2023-02-13T05:33:48;5.08;80.24
65989;HTU21D;53592;51.402;6.054;2023-02-13T05:36:14;5.04;80.41
65989;HTU21D;53592;51.402;6.054;2023-02-13T05:38:39;5.02;80.49
65989;HTU21D;53592;51.402;6.054;2023-02-13T05:41:06;5.01;80.50
65989;HTU21D;53592;51.402;6.054;2023-02-13T05:43:31;4.97;80.37
65989;HTU21D;53592;51.402;6.054;2023-02-13T05:46:15;4.92;80.30
65989;HTU21D;53592;51.402;6.054;2023-02-13T05:48:40;4.89;80.47
65989;HTU21D;53592;51.402;6.054;2023-02-13T05:51:06;4.91;80.46
65989;HTU21D;53592;51.402;6.054;2023-02-13T05:53:32;4.88;80.46
65989;HTU21D;53592;51.402;6.054;2023-02-13T05:56:00;4.86;80.52
65989;HTU21D;53592;51.402;6.054;2023-02-13T05:58:27;4.83;80.59
65989;HTU21D;53592;51.402;6.054;2023-02-13T06:00:55;4.80;80.52
65989;HTU21D;53592;51.402;6.054;2023-02-13T06:03:23;4.79;80.60
65989;HTU21D;53592;51.402;6.054;2023-02-13T06:05:49;4.78;80.75
65989;HTU21D;53592;51.402;6.054;2023-02-13T06:08:14;4.78;80.83
65989;HTU21D;53592;51.402;6.054;2023-02-13T06:10:40;4.76;80.90
65989;HTU21D;53592;51.402;6.054;2023-02-13T06:13:05;4.74;81.03
65989;HTU21D;53592;51.402;6.054;2023-02-13T06:15:31;4.74;80.98
65989;HTU21D;53592;51.402;6.054;2023-02-13T06:17:57;4.73;80.84
65989;HTU21D;53592;51.402;6.054;2023-02-13T06:20:22;4.71;80.73
65989;HTU21D;53592;51.402;6.054;2023-02-13T06:22:49;4.68;80.66
65989;HTU21D;53592;51.402;6.054;2023-02-13T06:25:16;4.66;80.43
65989;HTU21D;53592;51.402;6.054;2023-02-13T06:27:41;4.62;80.32
65989;HTU21D;53592;51.402;6.054;2023-02-13T06:30:07;4.58;80.41
65989;HTU21D;53592;51.402;6.054;2023-02-13T06:32:33;4.57;80.55
65989;HTU21D;53592;51.402;6.054;2023-02-13T06:34:58;4.54;80.62
65989;HTU21D;53592;51.402;6.054;2023-02-13T06:37:24;4.51;80.62
65989;HTU21D;53592;51.402;6.054;2023-02-13T06:39:49;4.51;80.69
65989;HTU21D;53592;51.402;6.054;2023-02-13T06:42:15;4.50;80.66
65989;HTU21D;53592;51.402;6.054;2023-02-13T06:44:40;4.47;80.72
65989;HTU21D;53592;51.402;6.054;2023-02-13T06:47:06;4.46;80.73
65989;HTU21D;53592;51.402;6.054;2023-02-13T06:49:31;4.45;80.56
65989;HTU21D;53592;51.402;6.054;2023-02-13T06:51:57;4.43;80.46
65989;HTU21D;53592;51.402;6.054;2023-02-13T06:54:22;4.42;80.56
65989;HTU21D;53592;51.402;6.054;2023-02-13T06:56:48;4.42;80.62
65989;HTU21D;53592;51.402;6.054;2023-02-13T06:59:13;4.44;80.50
65989;HTU21D;53592;51.402;6.054;2023-02-13T07:01:39;4.42;80.27
65989;HTU21D;53592;51.402;6.054;2023-02-13T07:04:04;4.42;80.10
65989;HTU21D;53592;51.402;6.054;2023-02-13T07:06:30;4.38;80.22
65989;HTU21D;53592;51.402;6.054;2023-02-13T07:08:55;4.41;80.40
65989;HTU21D;53592;51.402;6.054;2023-02-13T07:11:23;4.42;80.47
65989;HTU21D;53592;51.402;6.054;2023-02-13T07:13:49;4.44;80.50
65989;HTU21D;53592;51.402;6.054;2023-02-13T07:16:15;4.44;80.57
65989;HTU21D;53592;51.402;6.054;2023-02-13T07:18:41;4.34;80.07
65989;HTU21D;53592;51.402;6.054;2023-02-13T07:21:07;4.21;80.22
65989;HTU21D;53592;51.402;6.054;2023-02-13T07:23:33;4.13;80.23
65989;HTU21D;53592;51.402;6.054;2023-02-13T07:26:00;4.06;80.75
65989;HTU21D;53592;51.402;6.054;2023-02-13T07:28:27;4.03;81.31
65989;HTU21D;53592;51.402;6.054;2023-02-13T07:30:53;4.08;81.58
65989;HTU21D;53592;51.402;6.054;2023-02-13T07:33:19;4.14;81.61
65989;HTU21D;53592;51.402;6.054;2023-02-13T07:35:46;4.19;81.65
65989;HTU21D;53592;51.402;6.054;2023-02-13T07:38:12;4.24;81.86
65989;HTU21D;53592;51.402;6.054;2023-02-13T07:40:37;4.30;81.93
65989;HTU21D;53592;51.402;6.054;2023-02-13T07:43:03;4.34;82.00
65989;HTU21D;53592;51.402;6.054;2023-02-13T07:45:29;4.39;82.20
65989;HTU21D;53592;51.402;6.054;2023-02-13T07:47:55;4.42;82.35
65989;HTU21D;53592;51.402;6.054;2023-02-13T07:50:21;4.47;82.18
65989;HTU21D;53592;51.402;6.054;2023-02-13T07:52:58;4.53;82.25
65989;HTU21D;53592;51.402;6.054;2023-02-13T07:55:24;4.58;82.36
65989;HTU21D;53592;51.402;6.054;2023-02-13T07:57:50;4.61;82.51
65989;HTU21D;53592;51.402;6.054;2023-02-13T08:00:17;4.65;82.68
65989;HTU21D;53592;51.402;6.054;2023-02-13T08:02:43;4.73;82.70
65989;HTU21D;53592;51.402;6.054;2023-02-13T08:05:09;4.77;82.70
65989;HTU21D;53592;51.402;6.054;2023-02-13T08:07:35;4.84;82.85
65989;HTU21D;53592;51.402;6.054;2023-02-13T08:10:00;4.91;82.78
65989;HTU21D;53592;51.402;6.054;2023-02-13T08:12:46;4.96;82.89
65989;HTU21D;53592;51.402;6.054;2023-02-13T08:15:13;5.04;82.93
65989;HTU21D;53592;51.402;6.054;2023-02-13T08:17:39;5.12;83.16
65989;HTU21D;53592;51.402;6.054;2023-02-13T08:20:06;5.19;82.93
65989;HTU21D;53592;51.402;6.054;2023-02-13T08:22:36;5.26;82.92
65989;HTU21D;53592;51.402;6.054;2023-02-13T08:25:02;5.31;82.82
65989;HTU21D;53592;51.402;6.054;2023-02-13T08:27:28;5.36;82.99
65989;HTU21D;53592;51.402;6.054;2023-02-13T08:29:56;5.41;82.86
65989;HTU21D;53592;51.402;6.054;2023-02-13T08:32:22;5.47;83.10
65989;HTU21D;53592;51.402;6.054;2023-02-13T08:34:48;5.60;84.05
65989;HTU21D;53592;51.402;6.054;2023-02-13T08:37:14;5.78;84.60
65989;HTU21D;53592;51.402;6.054;2023-02-13T08:39:39;5.99;85.38
65989;HTU21D;53592;51.402;6.054;2023-02-13T08:42:05;6.25;85.29
65989;HTU21D;53592;51.402;6.054;2023-02-13T08:44:31;6.52;85.37
65989;HTU21D;53592;51.402;6.054;2023-02-13T08:46:56;6.80;84.87
65989;HTU21D;53592;51.402;6.054;2023-02-13T08:49:22;7.02;83.96
65989;HTU21D;53592;51.402;6.054;2023-02-13T08:51:48;7.19;83.07
65989;HTU21D;53592;51.402;6.054;2023-02-13T08:54:14;7.31;83.31
65989;HTU21D;53592;51.402;6.054;2023-02-13T08:56:41;7.47;84.00
65989;HTU21D;53592;51.402;6.054;2023-02-13T08:59:06;7.70;84.36
65989;HTU21D;53592;51.402;6.054;2023-02-13T09:01:32;8.09;84.87
65989;HTU21D;53592;51.402;6.054;2023-02-13T09:03:57;8.62;83.78
65989;HTU21D;53592;51.402;6.054;2023-02-13T09:06:23;9.12;81.98
65989;HTU21D;53592;51.402;6.054;2023-02-13T09:08:51;9.57;80.99
65989;HTU21D;53592;51.402;6.054;2023-02-13T09:11:16;10.14;78.26
65989;HTU21D;53592;51.402;6.054;2023-02-13T09:13:44;10.38;76.83
65989;HTU21D;53592;51.402;6.054;2023-02-13T09:16:10;10.52;76.42
65989;HTU21D;53592;51.402;6.054;2023-02-13T09:18:35;10.98;75.70
65989;HTU21D;53592;51.402;6.054;2023-02-13T09:21:10;11.52;74.35
65989;HTU21D;53592;51.402;6.054;2023-02-13T09:23:37;11.87;73.15
65989;HTU21D;53592;51.402;6.054;2023-02-13T09:26:09;12.25;71.06
65989;HTU21D;53592;51.402;6.054;2023-02-13T09:28:35;12.52;71.13
65989;HTU21D;53592;51.402;6.054;2023-02-13T09:31:09;13.02;70.05
65989;HTU21D;53592;51.402;6.054;2023-02-13T09:33:36;13.27;68.75
65989;HTU21D;53592;51.402;6.054;2023-02-13T09:36:06;13.49;67.55
65989;HTU21D;53592;51.402;6.054;2023-02-13T09:38:33;13.90;67.96
65989;HTU21D;53592;51.402;6.054;2023-02-13T09:41:14;14.48;65.85
65989;HTU21D;53592;51.402;6.054;2023-02-13T09:43:57;14.77;64.56
65989;HTU21D;53592;51.402;6.054;2023-02-13T09:46:37;14.91;61.22
65989;HTU21D;53592;51.402;6.054;2023-02-13T09:49:12;14.65;62.34
65989;HTU21D;53592;51.402;6.054;2023-02-13T09:51:41;14.40;61.90
65989;HTU21D;53592;51.402;6.054;2023-02-13T09:54:14;14.15;62.83
65989;HTU21D;53592;51.402;6.054;2023-02-13T10:02:19;13.77;63.24
65989;HTU21D;53592;51.402;6.054;2023-02-13T10:10:14;14.18;63.77
65989;HTU21D;53592;51.402;6.054;2023-02-13T10:13:20;14.18;63.40
65989;HTU21D;53592;51.402;6.054;2023-02-13T10:19:02;14.18;62.79
65989;HTU21D;53592;51.402;6.054;2023-02-13T10:21:34;14.11;61.85
65989;HTU21D;53592;51.402;6.054;2023-02-13T10:24:12;14.00;62.29
65989;HTU21D;53592;51.402;6.054;2023-02-13T10:26:42;13.95;64.11
65989;HTU21D;53592;51.402;6.054;2023-02-13T10:29:27;14.27;61.75
65989;HTU21D;53592;51.402;6.054;2023-02-13T10:32:21;14.06;63.38
65989;HTU21D;53592;51.402;6.054;2023-02-13T10:34:52;14.17;62.92
65989;HTU21D;53592;51.402;6.054;2023-02-13T10:37:20;14.13;63.08
65989;HTU21D;53592;51.402;6.054;2023-02-13T10:39:51;14.11;63.47
65989;HTU21D;53592;51.402;6.054;2023-02-13T10:50:24;14.68;61.42
65989;HTU21D;53592;51.402;6.054;2023-02-13T11:04:10;13.90;60.92
65989;HTU21D;53592;51.402;6.054;2023-02-13T11:06:41;13.55;62.54
65989;HTU21D;53592;51.402;6.054;2023-02-13T11:09:08;13.50;62.70
65989;HTU21D;53592;51.402;6.054;2023-02-13T11:11:40;13.45;62.08
65989;HTU21D;53592;51.402;6.054;2023-02-13T11:22:12;12.63;64.99
65989;HTU21D;53592;51.402;6.054;2023-02-13T11:24:41;12.55;65.74
65989;HTU21D;53592;51.402;6.054;2023-02-13T11:27:15;12.56;65.29
65989;HTU21D;53592;51.402;6.054;2023-02-13T11:29:59;12.51;65.72
65989;HTU21D;53592;51.402;6.054;2023-02-13T11:32:29;12.51;66.04
65989;HTU21D;53592;51.402;6.054;2023-02-13T11:34:54;12.43;65.69
65989;HTU21D;53592;51.402;6.054;2023-02-13T11:39:49;12.28;67.11
65989;HTU21D;53592;51.402;6.054;2023-02-13T11:42:30;12.31;67.78
65989;HTU21D;53592;51.402;6.054;2023-02-13T11:45:21;12.40;67.07
65989;HTU21D;53592;51.402;6.054;2023-02-13T11:47:48;12.44;66.93
65989;HTU21D;53592;51.402;6.054;2023-02-13T11:50:32;12.46;66.57
65989;HTU21D;53592;51.402;6.054;2023-02-13T11:53:17;12.46;66.51
65989;HTU21D;53592;51.402;6.054;2023-02-13T11:55:45;12.52;66.20
65989;HTU21D;53592;51.402;6.054;2023-02-13T11:58:27;12.64;65.99
65989;HTU21D;53592;51.402;6.054;2023-02-13T12:03:33;12.82;65.57
65989;HTU21D;53592;51.402;6.054;2023-02-13T12:06:12;12.89;65.39
65989;HTU21D;53592;51.402;6.054;2023-02-13T12:08:43;13.06;65.03
65989;HTU21D;53592;51.402;6.054;2023-02-13T12:13:59;13.43;62.71
65989;HTU21D;53592;51.402;6.054;2023-02-13T12:16:39;13.45;61.67
65989;HTU21D;53592;51.402;6.054;2023-02-13T12:19:17;13.34;62.22
65989;HTU21D;53592;51.402;6.054;2023-02-13T12:22:17;13.39;63.18
65989;HTU21D;53592;51.402;6.054;2023-02-13T12:28:00;13.67;62.36
65989;HTU21D;53592;51.402;6.054;2023-02-13T12:30:50;13.82;62.70
65989;HTU21D;53592;51.402;6.054;2023-02-13T12:47:23;14.24;58.91
65989;HTU21D;53592;51.402;6.054;2023-02-13T13:07:44;14.35;59.90
65989;HTU21D;53592;51.402;6.054;2023-02-13T13:18:38;14.50;59.71
65989;HTU21D;53592;51.402;6.054;2023-02-13T13:27:26;14.58;60.12
65989;HTU21D;53592;51.402;6.054;2023-02-13T13:30:17;14.60;59.32
65989;HTU21D;53592;51.402;6.054;2023-02-13T13:32:48;14.60;59.96
65989;HTU21D;53592;51.402;6.054;2023-02-13T13:35:19;14.68;59.37
65989;HTU21D;53592;51.402;6.054;2023-02-13T13:37:55;14.73;58.89
65989;HTU21D;53592;51.402;6.054;2023-02-13T13:43:19;14.54;59.74
65989;HTU21D;53592;51.402;6.054;2023-02-13T13:51:20;14.62;60.89
65989;HTU21D;53592;51.402;6.054;2023-02-13T14:07:33;14.60;60.98
65989;HTU21D;53592;51.402;6.054;2023-02-13T14:09:59;14.58;61.03
65989;HTU21D;53592;51.402;6.054;2023-02-13T14:12:36;14.55;61.08
65989;HTU21D;53592;51.402;6.054;2023-02-13T14:15:02;14.53;60.99
65989;HTU21D;53592;51.402;6.054;2023-02-13T14:20:34;14.42;61.40
65989;HTU21D;53592;51.402;6.054;2023-02-13T14:31:20;14.33;60.86
65989;HTU21D;53592;51.402;6.054;2023-02-13T14:36:46;14.19;61.02
65989;HTU21D;53592;51.402;6.054;2023-02-13T14:39:28;14.13;61.18
65989;HTU21D;53592;51.402;6.054;2023-02-13T14:44:49;0.00;61.41
65989;HTU21D;53592;51.402;6.054;2023-02-13T14:47:30;14.00;61.94
65989;HTU21D;53592;51.402;6.054;2023-02-13T14:50:02;13.97;62.15
65989;HTU21D;53592;51.402;6.054;2023-02-13T14:52:35;13.93;62.73
65989;HTU21D;53592;51.402;6.054;2023-02-13T14:58:15;13.89;62.59
65989;HTU21D;53592;51.402;6.054;2023-02-13T15:00:48;13.88;62.40
65989;HTU21D;53592;51.402;6.054;2023-02-13T15:05:56;13.82;62.40
65989;HTU21D;53592;51.402;6.054;2023-02-13T15:08:33;13.78;62.70
65989;HTU21D;53592;51.402;6.054;2023-02-13T15:11:00;13.73;62.94
65989;HTU21D;53592;51.402;6.054;2023-02-13T15:13:30;13.70;62.94
65989;HTU21D;53592;51.402;6.054;2023-02-13T15:16:10;13.67;63.15
65989;HTU21D;53592;51.402;6.054;2023-02-13T15:18:48;13.62;63.56
65989;HTU21D;53592;51.402;6.054;2023-02-13T15:21:17;13.56;63.79
65989;HTU21D;53592;51.402;6.054;2023-02-13T15:23:49;13.54;63.60
65989;HTU21D;53592;51.402;6.054;2023-02-13T15:26:22;13.50;64.12
65989;HTU21D;53592;51.402;6.054;2023-02-13T15:29:03;13.46;64.31
65989;HTU21D;53592;51.402;6.054;2023-02-13T15:31:31;13.40;64.33
65989;HTU21D;53592;51.402;6.054;2023-02-13T15:33:58;13.37;64.46
65989;HTU21D;53592;51.402;6.054;2023-02-13T15:36:25;13.32;64.63
65989;HTU21D;53592;51.402;6.054;2023-02-13T15:39:19;13.23;65.00
65989;HTU21D;53592;51.402;6.054;2023-02-13T15:41:50;13.17;64.90
65989;HTU21D;53592;51.402;6.054;2023-02-13T15:44:19;13.17;64.98
65989;HTU21D;53592;51.402;6.054;2023-02-13T15:46:48;13.11;65.13
65989;HTU21D;53592;51.402;6.054;2023-02-13T15:49:21;13.05;65.34
65989;HTU21D;53592;51.402;6.054;2023-02-13T15:51:48;13.02;65.24
65989;HTU21D;53592;51.402;6.054;2023-02-13T15:54:29;12.96;65.61
65989;HTU21D;53592;51.402;6.054;2023-02-13T15:57:02;12.89;65.75
65989;HTU21D;53592;51.402;6.054;2023-02-13T15:59:35;12.82;65.91
65989;HTU21D;53592;51.402;6.054;2023-02-13T16:02:04;12.81;66.01
65989;HTU21D;53592;51.402;6.054;2023-02-13T16:04:31;12.77;66.14
65989;HTU21D;53592;51.402;6.054;2023-02-13T16:06:58;12.73;66.24
65989;HTU21D;53592;51.402;6.054;2023-02-13T16:09:34;12.70;66.33
65989;HTU21D;53592;51.402;6.054;2023-02-13T16:12:24;12.63;66.53
65989;HTU21D;53592;51.402;6.054;2023-02-13T16:17:29;12.49;66.98
65989;HTU21D;53592;51.402;6.054;2023-02-13T16:22:49;12.36;67.16
65989;HTU21D;53592;51.402;6.054;2023-02-13T16:25:24;12.29;67.31
65989;HTU21D;53592;51.402;6.054;2023-02-13T16:28:01;12.21;67.59
65989;HTU21D;53592;51.402;6.054;2023-02-13T16:30:31;12.15;67.72
65989;HTU21D;53592;51.402;6.054;2023-02-13T16:35:41;12.00;68.14
65989;HTU21D;53592;51.402;6.054;2023-02-13T16:43:54;11.81;68.65
65989;HTU21D;53592;51.402;6.054;2023-02-13T16:53:57;11.58;69.11
65989;HTU21D;53592;51.402;6.054;2023-02-13T16:56:24;11.54;69.16
65989;HTU21D;53592;51.402;6.054;2023-02-13T16:58:49;11.47;69.32
65989;HTU21D;53592;51.402;6.054;2023-02-13T17:01:16;11.40;69.49
65989;HTU21D;53592;51.402;6.054;2023-02-13T17:03:42;11.36;69.52
65989;HTU21D;53592;51.402;6.054;2023-02-13T17:06:08;11.31;69.59
65989;HTU21D;53592;51.402;6.054;2023-02-13T17:08:34;11.27;69.84
65989;HTU21D;53592;51.402;6.054;2023-02-13T17:11:05;11.20;70.10
65989;HTU21D;53592;51.402;6.054;2023-02-13T17:13:32;11.16;70.23
65989;HTU21D;53592;51.402;6.054;2023-02-13T17:15:59;11.12;70.26
65989;HTU21D;53592;51.402;6.054;2023-02-13T17:18:25;11.09;70.23
65989;HTU21D;53592;51.402;6.054;2023-02-13T17:20:51;11.05;70.18
65989;HTU21D;53592;51.402;6.054;2023-02-13T17:23:20;11.00;70.23
65989;HTU21D;53592;51.402;6.054;2023-02-13T17:25:48;10.95;70.35
65989;HTU21D;53592;51.402;6.054;2023-02-13T17:28:17;10.87;70.35
65989;HTU21D;53592;51.402;6.054;2023-02-13T17:30:44;10.80;70.36
65989;HTU21D;53592;51.402;6.054;2023-02-13T17:33:19;10.68;70.58
65989;HTU21D;53592;51.402;6.054;2023-02-13T17:35:45;10.56;70.93
65989;HTU21D;53592;51.402;6.054;2023-02-13T17:38:11;10.52;71.05
65989;HTU21D;53592;51.402;6.054;2023-02-13T17:40:36;10.45;71.20
65989;HTU21D;53592;51.402;6.054;2023-02-13T17:43:02;10.37;71.29
65989;HTU21D;53592;51.402;6.054;2023-02-13T17:45:30;10.27;71.49
65989;HTU21D;53592;51.402;6.054;2023-02-13T17:47:56;10.11;71.73
65989;HTU21D;53592;51.402;6.054;2023-02-13T17:50:24;9.96;72.31
65989;HTU21D;53592;51.402;6.054;2023-02-13T17:52:50;9.81;72.53
65989;HTU21D;53592;51.402;6.054;2023-02-13T17:55:23;9.66;73.03
65989;HTU21D;53592;51.402;6.054;2023-02-13T17:57:50;9.55;73.43
65989;HTU21D;53592;51.402;6.054;2023-02-13T18:00:18;9.47;73.98
65989;HTU21D;53592;51.402;6.054;2023-02-13T18:02:48;9.42;74.18
65989;HTU21D;53592;51.402;6.054;2023-02-13T18:05:15;9.42;74.10
65989;HTU21D;53592;51.402;6.054;2023-02-13T18:07:41;9.38;74.07
65989;HTU21D;53592;51.402;6.054;2023-02-13T18:10:20;9.34;74.06
65989;HTU21D;53592;51.402;6.054;2023-02-13T18:12:47;9.30;74.25
65989;HTU21D;53592;51.402;6.054;2023-02-13T18:15:13;9.23;74.44
65989;HTU21D;53592;51.402;6.054;2023-02-13T18:17:39;9.27;74.40
65989;HTU21D;53592;51.402;6.054;2023-02-13T18:20:05;9.30;74.19
65989;HTU21D;53592;51.402;6.054;2023-02-13T18:22:31;9.31;74.05
65989;HTU21D;53592;51.402;6.054;2023-02-13T18:24:57;9.29;73.86
65989;HTU21D;53592;51.402;6.054;2023-02-13T18:27:23;9.23;73.90
65989;HTU21D;53592;51.402;6.054;2023-02-13T18:29:50;9.21;73.97
65989;HTU21D;53592;51.402;6.054;2023-02-13T18:32:16;9.17;73.83
65989;HTU21D;53592;51.402;6.054;2023-02-13T18:34:41;9.09;73.90
65989;HTU21D;53592;51.402;6.054;2023-02-13T18:37:08;9.01;74.05
65989;HTU21D;53592;51.402;6.054;2023-02-13T18:39:33;8.89;74.29
65989;HTU21D;53592;51.402;6.054;2023-02-13T18:41:59;8.79;74.64
65989;HTU21D;53592;51.402;6.054;2023-02-13T18:44:25;8.67;75.00
65989;HTU21D;53592;51.402;6.054;2023-02-13T18:46:50;8.59;75.38
65989;HTU21D;53592;51.402;6.054;2023-02-13T18:49:16;8.55;75.60
65989;HTU21D;53592;51.402;6.054;2023-02-13T18:51:41;8.48;75.79
65989;HTU21D;53592;51.402;6.054;2023-02-13T18:54:09;8.47;76.05
65989;HTU21D;53592;51.402;6.054;2023-02-13T18:56:35;8.45;76.33
65989;HTU21D;53592;51.402;6.054;2023-02-13T18:59:00;8.41;76.49
65989;HTU21D;53592;51.402;6.054;2023-02-13T19:01:26;8.36;76.57
65989;HTU21D;53592;51.402;6.054;2023-02-13T19:03:52;8.31;76.96